createdAt,value
2024-05-09T00:01:29.442Z,17.25
2024-05-09T00:03:31.506Z,19.25
2024-05-09T00:05:33.503Z,18.50
2024-05-09T00:07:35.878Z,19.50
2024-05-09T00:09:37.990Z,21.25
2024-05-09T00:11:39.998Z,18.75
2024-05-09T00:13:41.938Z,20.00
2024-05-09T00:15:43.774Z,14.75
2024-05-09T00:17:45.878Z,19.50
2024-05-09T00:19:48.488Z,20.25
2024-05-09T00:21:50.571Z,18.25
2024-05-09T00:23:52.291Z,20.00
2024-05-09T00:25:54.085Z,18.25
2024-05-09T00:27:55.849Z,20.50
2024-05-09T00:29:57.570Z,17.25
2024-05-09T00:31:59.445Z,17.75
2024-05-09T00:34:01.758Z,17.75
2024-05-09T00:36:03.837Z,17.00
2024-05-09T00:38:05.680Z,16.50
2024-05-09T00:40:15.050Z,17.75
2024-05-09T00:42:24.139Z,15.50
2024-05-09T00:44:26.084Z,17.75
2024-05-09T00:46:28.008Z,16.00
2024-05-09T00:48:30.143Z,12.25
2024-05-09T00:50:38.014Z,14.75
2024-05-09T00:52:40.812Z,15.00
2024-05-09T00:54:42.665Z,16.00
2024-05-09T00:56:44.784Z,15.00
2024-05-09T00:58:48.359Z,14.75
2024-05-09T01:00:51.084Z,12.00
2024-05-09T01:02:53.069Z,15.00
2024-05-09T01:04:55.682Z,14.50
2024-05-09T01:06:57.787Z,14.75
2024-05-09T01:08:59.684Z,16.25
2024-05-09T01:11:01.816Z,17.50
2024-05-09T01:13:07.482Z,16.50
2024-05-09T01:15:09.450Z,15.25
2024-05-09T01:17:12.003Z,13.75
2024-05-09T01:19:28.845Z,18.00
2024-05-09T01:21:30.659Z,16.00
2024-05-09T01:23:32.668Z,17.25
2024-05-09T01:25:35.428Z,11.50
2024-05-09T01:27:37.232Z,15.75
2024-05-09T01:29:39.185Z,16.00
2024-05-09T01:31:41.027Z,18.50
2024-05-09T01:33:43.614Z,16.75
2024-05-09T01:35:45.565Z,19.25
2024-05-09T01:37:47.387Z,17.75
2024-05-09T01:39:49.311Z,20.00
2024-05-09T01:41:51.183Z,20.00
2024-05-09T01:43:53.058Z,19.50
2024-05-09T01:45:54.866Z,20.00
2024-05-09T01:47:56.774Z,18.00
2024-05-09T01:49:58.636Z,18.25
2024-05-09T01:52:00.432Z,20.50
2024-05-09T01:54:02.858Z,19.75
2024-05-09T01:56:04.875Z,18.00
2024-05-09T01:58:07.407Z,17.75
2024-05-09T02:00:10.395Z,15.00
2024-05-09T02:02:12.966Z,15.75
2024-05-09T02:04:14.922Z,17.50
2024-05-09T02:06:16.920Z,21.00
2024-05-09T02:08:20.850Z,16.25
2024-05-09T02:10:26.643Z,15.25
2024-05-09T02:12:34.021Z,16.00
2024-05-09T02:14:35.854Z,16.00
2024-05-09T02:16:37.672Z,15.75
2024-05-09T02:18:39.512Z,15.25
2024-05-09T02:20:42.399Z,13.00
2024-05-09T02:22:44.904Z,15.50
2024-05-09T02:24:47.166Z,14.00
2024-05-09T02:26:49.204Z,19.25
2024-05-09T02:28:51.180Z,19.75
2024-05-09T02:30:53.009Z,17.75
2024-05-09T02:32:54.823Z,16.50
2024-05-09T02:34:56.726Z,17.75
2024-05-09T02:36:58.499Z,19.25
2024-05-09T02:39:00.309Z,18.25
2024-05-09T02:41:02.131Z,20.50
2024-05-09T02:43:04.060Z,14.25
2024-05-09T02:45:06.244Z,17.00
2024-05-09T02:47:08.101Z,17.25
2024-05-09T02:49:10.134Z,17.00
2024-05-09T02:51:12.047Z,16.50
2024-05-09T02:53:14.758Z,18.50
2024-05-09T02:55:16.638Z,16.75
2024-05-09T02:57:18.363Z,15.50
2024-05-09T02:59:20.290Z,16.50
2024-05-09T03:01:22.121Z,19.25
2024-05-09T03:03:24.492Z,19.75
2024-05-09T03:05:26.483Z,12.00
2024-05-09T03:07:28.214Z,19.00
2024-05-09T03:09:29.934Z,17.75
2024-05-09T03:11:31.766Z,19.00
2024-05-09T03:13:33.703Z,21.50
2024-05-09T03:15:35.560Z,24.75
2024-05-09T03:17:40.295Z,25.50
2024-05-09T03:19:42.175Z,15.25
2024-05-09T03:21:43.898Z,25.00
2024-05-09T03:23:45.760Z,24.00
2024-05-09T03:25:47.929Z,24.00
2024-05-09T03:27:49.825Z,21.00
2024-05-09T03:29:51.701Z,26.75
2024-05-09T03:31:53.658Z,23.00
2024-05-09T03:33:55.550Z,23.75
2024-05-09T03:35:57.331Z,21.50
2024-05-09T03:37:59.079Z,20.75
2024-05-09T03:40:02.697Z,22.50
2024-05-09T03:42:04.907Z,19.25
2024-05-09T03:44:06.725Z,20.50
2024-05-09T03:46:08.470Z,18.00
2024-05-09T03:48:10.655Z,18.50
2024-05-09T03:50:18.522Z,22.25
2024-05-09T03:52:27.682Z,18.25
2024-05-09T03:54:29.430Z,20.00
2024-05-09T03:56:31.269Z,18.75
2024-05-09T03:58:33.082Z,21.25
2024-05-09T04:00:38.739Z,22.75
2024-05-09T04:02:43.325Z,23.75
2024-05-09T04:04:45.307Z,27.25
2024-05-09T04:06:47.382Z,30.00
2024-05-09T04:08:49.589Z,29.00
2024-05-09T04:10:51.554Z,28.75
2024-05-09T04:12:53.489Z,25.00
2024-05-09T04:14:55.257Z,25.25
2024-05-09T04:16:57.048Z,25.50
2024-05-09T04:18:58.841Z,23.75
2024-05-09T04:21:00.882Z,23.75
2024-05-09T04:23:02.753Z,23.50
2024-05-09T04:25:05.009Z,22.00
2024-05-09T04:27:06.844Z,20.75
2024-05-09T04:29:08.739Z,19.00
2024-05-09T04:31:10.500Z,19.25
2024-05-09T04:33:14.977Z,20.00
2024-05-09T04:35:20.441Z,20.00
2024-05-09T04:37:22.213Z,18.50
2024-05-09T04:39:24.214Z,19.00
2024-05-09T04:41:26.850Z,15.50
2024-05-09T04:43:28.651Z,15.33
2024-05-09T04:45:30.690Z,14.25
2024-05-09T04:47:32.791Z,15.00
2024-05-09T04:49:34.817Z,14.67
2024-05-09T04:51:36.629Z,13.67
2024-05-09T04:53:38.551Z,17.33
2024-05-09T04:55:40.763Z,17.33
2024-05-09T04:57:42.705Z,15.33
2024-05-09T04:59:44.573Z,18.33
2024-05-09T05:01:46.480Z,17.00
2024-05-09T05:03:48.590Z,16.33
2024-05-09T05:05:50.553Z,16.67
2024-05-09T05:07:52.360Z,16.67
2024-05-09T05:09:54.280Z,17.33
2024-05-09T05:11:56.096Z,17.00
2024-05-09T05:13:57.910Z,15.33
2024-05-09T05:15:59.971Z,17.00
2024-05-09T05:18:01.893Z,16.00
2024-05-09T05:20:05.761Z,16.00
2024-05-09T05:22:07.693Z,16.00
2024-05-09T05:24:09.448Z,14.67
2024-05-09T05:26:11.184Z,11.33
2024-05-09T05:28:13.413Z,14.00
2024-05-09T05:30:21.257Z,13.33
2024-05-09T05:32:27.250Z,10.67
2024-05-09T05:34:29.139Z,13.33
2024-05-09T05:36:30.863Z,12.00
2024-05-09T05:38:32.696Z,12.67
2024-05-09T05:40:37.253Z,13.67
2024-05-09T05:42:40.307Z,12.00
2024-05-09T05:44:42.148Z,13.00
2024-05-09T05:46:43.883Z,11.33
2024-05-09T05:48:45.862Z,9.67
2024-05-09T05:50:47.906Z,11.33
2024-05-09T05:52:49.817Z,10.33
2024-05-09T05:54:54.099Z,8.33
2024-05-09T05:56:55.944Z,9.00
2024-05-09T05:58:57.710Z,9.00
2024-05-09T06:00:59.454Z,4.00
2024-05-09T06:03:01.350Z,10.00
2024-05-09T06:05:03.496Z,8.67
2024-05-09T06:07:05.789Z,6.67
2024-05-09T06:09:07.613Z,7.67
2024-05-09T06:11:09.435Z,7.33
2024-05-09T06:13:14.470Z,4.00
2024-05-09T06:15:16.483Z,7.33
2024-05-09T06:17:18.411Z,8.33
2024-05-09T06:19:20.594Z,6.33
2024-05-09T06:21:22.645Z,6.00
2024-05-09T06:23:24.535Z,5.00
2024-05-09T06:25:26.965Z,6.00
2024-05-09T06:27:28.724Z,6.00
2024-05-09T06:29:30.696Z,5.00
2024-05-09T06:31:32.623Z,7.67
2024-05-09T06:33:34.750Z,0.00
2024-05-09T06:35:36.978Z,6.33
2024-05-09T06:37:38.951Z,7.00
2024-05-09T06:39:40.694Z,7.00
2024-05-09T06:41:42.591Z,9.00
2024-05-09T06:43:44.418Z,6.33
2024-05-09T06:45:50.590Z,6.33
2024-05-09T06:47:52.641Z,7.00
2024-05-09T06:49:54.771Z,7.33
2024-05-09T06:51:56.502Z,9.33
2024-05-09T06:53:58.233Z,9.00
2024-05-09T06:56:00.043Z,9.33
2024-05-09T06:58:01.867Z,7.00
2024-05-09T07:00:03.985Z,9.00
2024-05-09T07:02:06.873Z,6.33
2024-05-09T07:04:08.941Z,7.67
2024-05-09T07:06:10.903Z,8.33
2024-05-09T07:08:12.868Z,9.33
2024-05-09T07:10:21.641Z,8.33
2024-05-09T07:12:27.523Z,11.00
2024-05-09T07:14:29.567Z,9.00
2024-05-09T07:16:31.638Z,8.67
2024-05-09T07:18:33.570Z,8.00
2024-05-09T07:20:35.573Z,9.00
2024-05-09T07:22:37.451Z,6.33
2024-05-09T07:24:39.181Z,9.00
2024-05-09T07:26:41.046Z,8.33
2024-05-09T07:28:42.853Z,9.00
2024-05-09T07:30:45.464Z,10.00
2024-05-09T07:32:47.858Z,7.33
2024-05-09T07:34:50.221Z,7.67
2024-05-09T07:36:52.541Z,12.33
2024-05-09T07:38:54.295Z,11.67
2024-05-09T07:40:56.166Z,10.00
2024-05-09T07:42:57.885Z,11.00
2024-05-09T07:45:14.898Z,11.67
2024-05-09T07:48:32.085Z,10.00
2024-05-09T07:51:32.226Z,9.33
2024-05-09T07:54:09.980Z,8.00
2024-05-09T07:56:13.548Z,9.00
2024-05-09T07:58:15.698Z,9.00
2024-05-09T08:00:23.611Z,9.00
2024-05-09T08:02:29.186Z,10.00
2024-05-09T08:04:31.161Z,7.50
2024-05-09T08:06:33.552Z,7.00
2024-05-09T08:08:35.292Z,7.00
2024-05-09T08:10:37.159Z,6.75
2024-05-09T08:12:39.041Z,7.00
2024-05-09T08:14:40.937Z,6.25
2024-05-09T08:16:42.797Z,6.00
2024-05-09T08:18:44.726Z,6.75
2024-05-09T08:20:48.659Z,5.50
2024-05-09T08:22:50.408Z,6.50
2024-05-09T08:24:52.173Z,6.00
2024-05-09T08:26:53.958Z,4.00
2024-05-09T08:28:55.636Z,4.50
2024-05-09T08:30:57.556Z,6.50
2024-05-09T08:32:59.503Z,2.00
2024-05-09T08:35:01.331Z,5.75
2024-05-09T08:37:10.182Z,6.00
2024-05-09T08:39:18.085Z,5.00
2024-05-09T08:41:19.824Z,5.50
2024-05-09T08:43:25.095Z,6.25
2024-05-09T08:45:27.508Z,5.00
2024-05-09T08:47:31.417Z,6.00
2024-05-09T08:49:34.131Z,5.00
2024-05-09T08:51:35.896Z,3.50
2024-05-09T08:53:37.748Z,4.75
2024-05-09T08:55:43.080Z,3.00
2024-05-09T08:57:46.570Z,4.50
2024-05-09T08:59:51.792Z,3.00
2024-05-09T09:01:54.746Z,5.50
2024-05-09T09:04:01.936Z,4.50
2024-05-09T09:06:03.951Z,5.25
2024-05-09T09:08:09.047Z,4.50
2024-05-09T09:10:17.583Z,5.00
2024-05-09T09:12:22.790Z,5.75
2024-05-09T09:14:24.500Z,4.00
2024-05-09T09:16:36.615Z,6.00
2024-05-09T09:18:38.888Z,4.25
2024-05-09T09:20:40.823Z,5.00
2024-05-09T09:22:42.576Z,4.50
2024-05-09T09:24:44.383Z,3.00
2024-05-09T09:26:46.227Z,4.00
2024-05-09T09:28:48.128Z,6.50
2024-05-09T09:30:49.973Z,3.25
2024-05-09T09:32:51.944Z,5.50
2024-05-09T09:34:53.966Z,4.75
2024-05-09T09:37:05.908Z,4.50
2024-05-09T09:39:09.699Z,5.00
2024-05-09T09:41:12.520Z,4.00
2024-05-09T09:43:19.411Z,7.00
2024-05-09T09:45:21.407Z,7.00
2024-05-09T09:47:27.201Z,4.50
2024-05-09T09:49:36.952Z,4.25
2024-05-09T09:51:43.672Z,6.25
2024-05-09T09:53:47.555Z,4.75
2024-05-09T09:55:51.299Z,3.75
2024-05-09T09:57:55.318Z,5.25
2024-05-09T09:59:57.811Z,6.00
2024-05-09T10:01:59.725Z,6.00
2024-05-09T10:04:03.988Z,11.00
2024-05-09T10:06:07.679Z,5.50
2024-05-09T10:08:10.740Z,6.75
2024-05-09T10:10:16.244Z,4.75
2024-05-09T10:12:20.797Z,6.00
2024-05-09T10:14:22.889Z,6.75
2024-05-09T10:16:24.926Z,6.50
2024-05-09T10:18:36.516Z,5.25
2024-05-09T10:20:45.420Z,5.25
2024-05-09T10:22:50.881Z,5.00
2024-05-09T10:24:54.206Z,3.50
2024-05-09T10:26:56.302Z,4.75
2024-05-09T10:28:58.812Z,4.00
2024-05-09T10:31:15.232Z,5.00
2024-05-09T10:33:20.127Z,5.50
2024-05-09T10:35:22.773Z,5.75
2024-05-09T10:37:27.065Z,4.00
2024-05-09T10:39:35.374Z,6.00
2024-05-09T10:41:38.271Z,4.75
2024-05-09T10:43:41.150Z,5.75
2024-05-09T10:45:43.136Z,4.25
2024-05-09T10:47:45.892Z,5.25
2024-05-09T10:49:49.134Z,5.25
2024-05-09T10:51:52.096Z,2.00
2024-05-09T10:53:54.166Z,5.00
2024-05-09T10:56:00.313Z,6.25
2024-05-09T10:58:02.117Z,3.00
2024-05-09T11:00:06.332Z,10.50
2024-05-09T11:02:10.914Z,7.00
2024-05-09T11:04:14.269Z,4.50
2024-05-09T11:06:17.954Z,5.00
2024-05-09T11:08:23.939Z,3.75
2024-05-09T11:10:33.387Z,5.00
2024-05-09T11:12:36.214Z,5.00
2024-05-09T11:14:38.192Z,3.25
2024-05-09T11:16:40.144Z,5.50
2024-05-09T11:18:42.172Z,4.00
2024-05-09T11:20:44.307Z,4.50
2024-05-09T11:22:46.538Z,5.00
2024-05-09T11:24:49.133Z,3.00
2024-05-09T11:26:51.213Z,4.00
2024-05-09T11:28:53.094Z,3.25
2024-05-09T11:31:08.838Z,5.50
2024-05-09T11:33:12.756Z,3.75
2024-05-09T11:35:14.683Z,4.00
2024-05-09T11:37:16.761Z,4.75
2024-05-09T11:39:18.752Z,3.00
2024-05-09T11:41:20.556Z,4.00
2024-05-09T11:43:22.459Z,5.00
2024-05-09T11:45:25.376Z,4.25
2024-05-09T11:47:27.585Z,6.00
2024-05-09T11:49:33.746Z,4.50
2024-05-09T11:51:35.879Z,5.25
2024-05-09T11:53:37.743Z,3.00
2024-05-09T11:55:39.552Z,6.50
2024-05-09T11:57:41.421Z,2.50
2024-05-09T11:59:43.433Z,3.75
2024-05-09T12:01:45.526Z,4.00
2024-05-09T12:03:49.685Z,3.50
2024-05-09T12:05:51.903Z,3.00
2024-05-09T12:07:54.973Z,3.75
2024-05-09T12:09:56.762Z,5.00
2024-05-09T12:11:58.774Z,5.75
2024-05-09T12:14:00.547Z,5.00
2024-05-09T12:16:02.572Z,5.00
2024-05-09T12:18:05.322Z,3.75
2024-05-09T12:20:14.275Z,3.50
2024-05-09T12:22:22.896Z,4.75
2024-05-09T12:24:25.284Z,5.50
2024-05-09T12:26:27.768Z,5.00
2024-05-09T12:28:29.666Z,5.50
2024-05-09T12:30:36.988Z,5.75
2024-05-09T12:32:41.579Z,4.50
2024-05-09T12:34:43.638Z,1.75
2024-05-09T12:36:45.535Z,4.50
2024-05-09T12:38:49.999Z,3.50
2024-05-09T12:40:52.033Z,4.25
2024-05-09T12:42:54.125Z,1.50
2024-05-09T12:44:56.002Z,3.00
2024-05-09T12:46:57.765Z,3.50
2024-05-09T12:49:00.282Z,5.00
2024-05-09T12:51:02.307Z,4.00
2024-05-09T12:53:05.201Z,4.00
2024-05-09T12:55:07.418Z,5.00
2024-05-09T12:57:09.567Z,4.00
2024-05-09T12:59:11.592Z,5.00
2024-05-09T13:01:13.403Z,4.25
2024-05-09T13:03:15.610Z,3.25
2024-05-09T13:05:17.685Z,3.75
2024-05-09T13:07:19.835Z,3.25
2024-05-09T13:09:22.010Z,4.25
2024-05-09T13:11:23.992Z,4.00
2024-05-09T13:13:26.783Z,4.00
2024-05-09T13:15:30.247Z,5.00
2024-05-09T13:17:33.561Z,3.50
2024-05-09T13:19:35.448Z,4.75
2024-05-09T13:21:37.193Z,2.75
2024-05-09T13:23:39.004Z,4.00
2024-05-09T13:25:40.924Z,4.00
2024-05-09T13:27:43.031Z,5.00
2024-05-09T13:29:44.838Z,6.00
2024-05-09T13:31:46.703Z,4.25
2024-05-09T13:33:48.933Z,4.25
2024-05-09T13:35:51.266Z,4.00
2024-05-09T13:37:53.391Z,4.50
2024-05-09T13:39:55.277Z,4.00
2024-05-09T13:41:57.030Z,4.75
2024-05-09T13:43:58.936Z,8.00
2024-05-09T13:46:00.691Z,5.00
2024-05-09T13:48:04.108Z,3.75
2024-05-09T13:50:09.074Z,3.75
2024-05-09T13:52:13.382Z,4.00
2024-05-09T13:54:16.716Z,6.25
2024-05-09T13:56:19.799Z,4.00
2024-05-09T13:58:23.765Z,3.75
2024-05-09T14:00:38.029Z,5.00
2024-05-09T14:02:47.024Z,7.25
2024-05-09T14:04:49.364Z,3.75
2024-05-09T14:06:51.552Z,4.25
2024-05-09T14:08:53.391Z,6.25
2024-05-09T14:10:56.245Z,4.00
2024-05-09T14:12:58.166Z,6.25
2024-05-09T14:15:00.106Z,4.50
2024-05-09T14:17:02.084Z,5.00
2024-05-09T14:19:04.214Z,4.50
2024-05-09T14:21:06.043Z,4.50
2024-05-09T14:23:07.905Z,5.00
2024-05-09T14:25:10.389Z,5.75
2024-05-09T14:27:12.274Z,7.00
2024-05-09T14:29:14.030Z,4.25
2024-05-09T14:31:15.874Z,4.00
2024-05-09T14:33:23.536Z,3.25
2024-05-09T14:35:25.391Z,5.00
2024-05-09T14:37:27.226Z,4.00
2024-05-09T14:39:29.117Z,4.80
2024-05-09T14:41:31.945Z,3.00
2024-05-09T14:43:33.825Z,6.00
2024-05-09T14:45:35.924Z,5.60
2024-05-09T14:47:38.046Z,5.00
2024-05-09T14:49:40.029Z,6.20
2024-05-09T14:51:48.443Z,6.40
2024-05-09T14:53:50.262Z,2.80
2024-05-09T14:55:52.266Z,3.40
2024-05-09T14:57:54.439Z,5.20
2024-05-09T14:59:56.336Z,4.80
2024-05-09T15:01:58.409Z,6.60
2024-05-09T15:04:00.440Z,3.80
2024-05-09T15:06:02.713Z,5.80
2024-05-09T15:08:08.066Z,5.80
2024-05-09T15:10:16.600Z,4.00
2024-05-09T15:12:25.124Z,4.00
2024-05-09T15:14:27.283Z,14.75
2024-05-09T15:16:29.056Z,5.00
2024-05-09T15:18:31.060Z,7.00
2024-05-09T15:20:36.188Z,4.00
2024-05-09T15:22:39.091Z,3.40
2024-05-09T15:24:42.123Z,5.00
2024-05-09T15:26:44.132Z,4.00
2024-05-09T15:28:45.841Z,4.75
2024-05-09T15:30:48.434Z,4.00
2024-05-09T15:32:50.469Z,4.75
2024-05-09T15:34:52.449Z,4.80
2024-05-09T15:36:54.254Z,5.20
2024-05-09T15:38:56.116Z,6.00
2024-05-09T15:40:57.997Z,5.00
2024-05-09T15:42:59.953Z,4.25
2024-05-09T15:45:02.016Z,4.75
2024-05-09T15:47:04.364Z,3.25
2024-05-09T15:49:06.383Z,4.50
2024-05-09T15:51:09.516Z,5.00
2024-05-09T15:53:13.681Z,2.25
2024-05-09T15:55:15.769Z,4.25
2024-05-09T15:57:17.709Z,4.00
2024-05-09T15:59:20.467Z,6.00
2024-05-09T16:01:22.363Z,5.00
2024-05-09T16:03:24.356Z,2.25
2024-05-09T16:05:26.917Z,8.00
2024-05-09T16:07:28.914Z,7.25
2024-05-09T16:09:30.770Z,5.25
2024-05-09T16:11:32.582Z,6.00
2024-05-09T16:13:34.384Z,6.25
2024-05-09T16:15:36.281Z,4.50
2024-05-09T16:17:38.279Z,5.00
2024-05-09T16:19:40.612Z,5.50
2024-05-09T16:21:42.579Z,4.75
2024-05-09T16:23:44.355Z,4.75
2024-05-09T16:25:48.481Z,3.50
2024-05-09T16:27:51.722Z,4.25
2024-05-09T16:29:53.719Z,4.50
2024-05-09T16:31:55.462Z,5.00
2024-05-09T16:33:57.636Z,5.75
2024-05-09T16:35:59.665Z,6.50
2024-05-09T16:38:02.734Z,5.25
2024-05-09T16:40:07.497Z,5.50
2024-05-09T16:42:09.559Z,3.50
2024-05-09T16:44:11.339Z,6.00
2024-05-09T16:46:13.281Z,6.25
2024-05-09T16:48:15.149Z,7.25
2024-05-09T16:50:25.740Z,10.25
2024-05-09T16:52:30.900Z,10.00
2024-05-09T16:54:32.714Z,7.50
2024-05-09T16:56:34.578Z,7.00
2024-05-09T16:58:36.472Z,6.75
2024-05-09T17:00:42.360Z,6.75
2024-05-09T17:02:45.785Z,5.25
2024-05-09T17:04:48.112Z,6.75
2024-05-09T17:06:50.085Z,6.00
2024-05-09T17:08:52.305Z,6.75
2024-05-09T17:10:55.950Z,4.25
2024-05-09T17:12:57.997Z,5.75
2024-05-09T17:14:59.817Z,5.60
2024-05-09T17:17:01.691Z,4.40
2024-05-09T17:19:04.760Z,6.00
2024-05-09T17:21:06.578Z,4.40
2024-05-09T17:23:13.434Z,6.00
2024-05-09T17:25:16.184Z,5.20
2024-05-09T17:27:18.085Z,7.60
2024-05-09T17:29:21.638Z,5.60
2024-05-09T17:31:23.643Z,6.60
2024-05-09T17:33:25.461Z,6.60
2024-05-09T17:35:27.352Z,7.80
2024-05-09T17:37:31.194Z,7.60
2024-05-09T17:39:33.352Z,5.60
2024-05-09T17:41:35.231Z,7.80
2024-05-09T17:43:37.074Z,7.00
2024-05-09T17:45:40.778Z,7.25
2024-05-09T17:47:43.509Z,12.00
2024-05-09T17:49:45.341Z,7.75
2024-05-09T17:51:54.133Z,9.00
2024-05-09T17:53:55.864Z,8.50
2024-05-09T17:55:59.327Z,7.00
2024-05-09T17:58:01.437Z,5.25
2024-05-09T18:00:07.026Z,6.25
2024-05-09T18:02:13.022Z,8.75
2024-05-09T18:04:14.951Z,9.00
2024-05-09T18:06:16.914Z,9.00
2024-05-09T18:08:18.726Z,10.00
2024-05-09T18:10:25.906Z,9.50
2024-05-09T18:12:34.667Z,164.50
2024-05-09T18:14:36.680Z,253.75
2024-05-09T18:16:38.660Z,8.75
2024-05-09T18:18:41.141Z,11.00
2024-05-09T18:20:45.604Z,8.25
2024-05-09T18:22:48.946Z,11.50
2024-05-09T18:24:50.912Z,10.25
2024-05-09T18:26:52.706Z,12.50
2024-05-09T18:28:54.624Z,10.50
2024-05-09T18:30:56.494Z,10.50
2024-05-09T18:32:58.376Z,13.00
2024-05-09T18:35:00.326Z,8.25
2024-05-09T18:37:04.447Z,12.00
2024-05-09T18:39:06.844Z,9.75
2024-05-09T18:41:08.654Z,11.75
2024-05-09T18:43:10.653Z,10.00
2024-05-09T18:45:13.134Z,27.00
2024-05-09T18:47:18.362Z,22.33
2024-05-09T18:49:21.691Z,17.00
2024-05-09T18:51:23.754Z,18.33
2024-05-09T18:53:25.528Z,16.33
2024-05-09T18:55:27.316Z,19.33
2024-05-09T18:57:29.158Z,19.00
2024-05-09T18:59:31.128Z,21.00
2024-05-09T19:01:33.136Z,19.00
2024-05-09T19:03:35.504Z,14.00
2024-05-09T19:05:37.608Z,15.00
2024-05-09T19:07:39.634Z,18.00
2024-05-09T19:09:41.460Z,16.33
2024-05-09T19:11:43.472Z,19.00
2024-05-09T19:13:45.285Z,26.67
2024-05-09T19:15:48.507Z,14.00
2024-05-09T19:17:50.497Z,7.67
2024-05-09T19:19:52.634Z,19.00
2024-05-09T19:21:57.679Z,13.00
2024-05-09T19:23:59.429Z,18.00
2024-05-09T19:26:01.228Z,19.33
2024-05-09T19:28:03.719Z,24.33
2024-05-09T19:30:13.901Z,21.33
2024-05-09T19:32:19.736Z,14.67
2024-05-09T19:34:21.683Z,19.00
2024-05-09T19:36:23.642Z,19.67
2024-05-09T19:38:25.670Z,19.00
2024-05-09T19:40:31.872Z,23.33
2024-05-09T19:42:35.423Z,19.33
2024-05-09T19:44:37.239Z,19.67
2024-05-09T19:46:39.070Z,19.67
2024-05-09T19:48:41.157Z,20.00
2024-05-09T19:50:44.756Z,20.33
2024-05-09T19:52:48.197Z,22.00
2024-05-09T19:54:50.154Z,17.33
2024-05-09T19:56:52.073Z,22.00
2024-05-09T19:58:55.198Z,21.33
2024-05-09T20:00:57.381Z,17.33
2024-05-09T20:02:59.200Z,23.00
2024-05-09T20:05:02.308Z,22.00
2024-05-09T20:07:04.588Z,17.67
2024-05-09T20:09:06.626Z,20.00
2024-05-09T20:11:08.373Z,24.33
2024-05-09T20:13:10.541Z,23.00
2024-05-09T20:15:12.332Z,23.00
2024-05-09T20:17:14.103Z,23.33
2024-05-09T20:19:15.976Z,25.67
2024-05-09T20:21:17.943Z,26.00
2024-05-09T20:23:20.049Z,24.67
2024-05-09T20:25:21.862Z,23.00
2024-05-09T20:27:24.133Z,23.00
2024-05-09T20:29:25.944Z,23.33
2024-05-09T20:31:27.743Z,23.00
2024-05-09T20:33:30.258Z,23.00
2024-05-09T20:35:32.932Z,23.33
2024-05-09T20:37:35.121Z,22.67
2024-05-09T20:39:36.911Z,24.00
2024-05-09T20:41:44.604Z,25.33
2024-05-09T20:43:46.635Z,20.00
2024-05-09T20:45:48.721Z,24.67
2024-05-09T20:47:50.608Z,30.67
2024-05-09T20:49:52.599Z,24.25
2024-05-09T20:51:54.367Z,25.75
2024-05-09T20:53:56.231Z,27.67
2024-05-09T20:55:58.009Z,27.75
2024-05-09T20:57:59.860Z,28.00
2024-05-09T21:00:01.635Z,28.00
2024-05-09T21:02:03.826Z,27.25
2024-05-09T21:04:05.947Z,28.50
2024-05-09T21:06:07.877Z,27.75
2024-05-09T21:08:09.727Z,27.25
2024-05-09T21:10:15.892Z,28.00
2024-05-09T21:12:24.288Z,33.00
2024-05-09T21:14:26.102Z,30.00
2024-05-09T21:16:27.992Z,27.50
2024-05-09T21:18:29.830Z,28.25
2024-05-09T21:20:33.465Z,24.00
2024-05-09T21:22:35.530Z,30.00
2024-05-09T21:24:37.351Z,28.25
2024-05-09T21:26:39.179Z,32.50
2024-05-09T21:28:40.910Z,30.00
2024-05-09T21:30:46.770Z,31.00
2024-05-09T21:32:49.966Z,27.75
2024-05-09T21:34:51.799Z,29.00
2024-05-09T21:36:53.708Z,25.75
2024-05-09T21:38:55.460Z,29.00
2024-05-09T21:40:57.874Z,27.50
2024-05-09T21:42:59.943Z,27.50
2024-05-09T21:45:01.739Z,26.25
2024-05-09T21:47:03.836Z,27.00
2024-05-09T21:49:05.643Z,28.00
2024-05-09T21:51:16.510Z,26.75
2024-05-09T21:53:18.662Z,23.75
2024-05-09T21:55:20.446Z,23.25
2024-05-09T21:57:22.419Z,27.00
2024-05-09T21:59:24.244Z,26.50
2024-05-09T22:01:26.118Z,26.00
2024-05-09T22:03:28.269Z,23.50
2024-05-09T22:05:30.406Z,22.50
2024-05-09T22:07:32.243Z,23.00
2024-05-09T22:09:34.047Z,25.25
2024-05-09T22:11:36.699Z,24.00
2024-05-09T22:13:38.538Z,23.50
2024-05-09T22:15:40.916Z,23.25
2024-05-09T22:17:43.115Z,23.50
2024-05-09T22:19:49.585Z,24.25
2024-05-09T22:21:51.647Z,22.00
2024-05-09T22:23:53.438Z,22.50
2024-05-09T22:25:55.225Z,23.00
2024-05-09T22:27:57.173Z,22.00
2024-05-09T22:29:59.014Z,22.75
2024-05-09T22:32:00.785Z,5.25
2024-05-09T22:34:02.794Z,23.00
2024-05-09T22:36:07.366Z,17.25
2024-05-09T22:38:09.288Z,22.00
2024-05-09T22:40:15.110Z,21.75
2024-05-09T22:42:22.130Z,22.50
2024-05-09T22:44:23.913Z,20.50
2024-05-09T22:46:25.800Z,16.75
2024-05-09T22:48:27.866Z,20.75
2024-05-09T22:50:33.279Z,21.25
2024-05-09T22:52:37.312Z,22.00
2024-05-09T22:54:39.130Z,23.50
2024-05-09T22:56:40.931Z,20.75
2024-05-09T22:58:42.680Z,19.75
2024-05-09T23:00:44.631Z,21.00
2024-05-09T23:02:46.545Z,22.75
2024-05-09T23:04:48.622Z,22.00
2024-05-09T23:06:51.836Z,23.00
2024-05-09T23:08:53.621Z,23.00
2024-05-09T23:10:55.682Z,24.75
2024-05-09T23:12:57.719Z,23.00
2024-05-09T23:14:59.718Z,22.25
2024-05-09T23:17:01.533Z,16.25
2024-05-09T23:19:03.685Z,22.75
2024-05-09T23:21:05.843Z,19.25
2024-05-09T23:23:08.608Z,23.25
2024-05-09T23:25:10.697Z,22.50
2024-05-09T23:27:12.645Z,22.75
2024-05-09T23:29:14.482Z,22.75
2024-05-09T23:31:16.243Z,23.00
2024-05-09T23:33:18.254Z,25.75
2024-05-09T23:35:20.065Z,20.00
2024-05-09T23:37:22.019Z,23.00
2024-05-09T23:39:23.853Z,23.75
2024-05-09T23:41:25.785Z,21.25
2024-05-09T23:43:27.739Z,22.00
2024-05-09T23:45:29.599Z,22.00
2024-05-09T23:47:31.362Z,23.75
2024-05-09T23:49:33.235Z,21.75
2024-05-09T23:51:35.284Z,22.50
2024-05-09T23:53:37.126Z,19.25
2024-05-09T23:55:39.169Z,23.50
2024-05-09T23:57:41.257Z,20.75
2024-05-09T23:59:43.000Z,22.50
